Time;durP1;ratioP1;P1;durP2;ratioP2;P2;SDS_P1;SDS_P2;PMS_P1;PMS_P2;Temp;Humidity;BMP_temperature;BMP_pressure;BME280_temperature;BME280_humidity;BME280_pressure;Samples;Min_cycle;Max_cycle;Signal;HPM_P1;HPM_P2
2023/02/11 00:01:53;;;;;;;60.27;29.97;;;;;;;-4.94;54.99;102347.27;125585;1099;104223;-86
2023/02/11 00:04:24;;;;;;;63.65;30.00;;;;;;;-4.94;55.56;102354.00;125485;1098;104252;-85
2023/02/11 00:06:55;;;;;;;64.60;28.87;;;;;;;-4.96;55.06;102350.34;125478;1099;104287;-83
2023/02/11 00:09:27;;;;;;;64.60;29.73;;;;;;;-4.96;54.70;102351.25;125557;1099;104352;-85
2023/02/11 00:11:58;;;;;;;60.37;28.93;;;;;;;-4.97;54.23;102349.44;125651;1099;104175;-86
2023/02/11 00:14:29;;;;;;;58.53;27.47;;;;;;;-4.99;54.87;102345.74;125552;1098;102642;-83
2023/02/11 00:17:00;;;;;;;61.83;29.33;;;;;;;-4.98;54.96;102342.47;125619;1099;104221;-84
2023/02/11 00:19:31;;;;;;;59.10;28.37;;;;;;;-5.00;54.99;102342.98;125586;1099;104267;-85
2023/02/11 00:22:03;;;;;;;66.03;30.23;;;;;;;-5.01;54.90;102344.64;125686;1099;104297;-86
2023/02/11 00:24:35;;;;;;;59.43;26.97;;;;;;;-5.01;54.96;102344.64;125569;1099;102077;-84
2023/02/11 00:27:06;;;;;;;66.90;32.67;;;;;;;-5.02;55.27;102335.11;125538;1099;102077;-83
2023/02/11 00:29:38;;;;;;;61.50;28.20;;;;;;;-5.03;55.13;102332.35;125546;1099;102651;-86
2023/02/11 00:32:10;;;;;;;58.40;27.90;;;;;;;-5.04;54.97;102331.45;125102;1099;104169;-85
2023/02/11 00:34:41;;;;;;;67.07;30.27;;;;;;;-5.07;55.14;102326.84;125701;1099;104165;-84
2023/02/11 00:37:13;;;;;;;70.60;32.73;;;;;;;-5.07;55.08;102328.50;125578;1099;102566;-85
2023/02/11 00:39:46;;;;;;;63.73;30.93;;;;;;;-5.08;55.09;102319.91;125564;1099;104178;-84
2023/02/11 00:42:17;;;;;;;64.83;30.27;;;;;;;-5.09;54.87;102318.06;125625;1099;102287;-84
2023/02/11 00:44:49;;;;;;;60.45;27.80;;;;;;;-5.07;55.08;102320.81;125676;1099;104224;-83
2023/02/11 00:47:21;;;;;;;62.60;29.00;;;;;;;-5.08;55.31;102309.67;125639;1099;101891;-86
2023/02/11 00:49:52;;;;;;;59.43;28.97;;;;;;;-5.07;55.25;102302.90;125512;1099;101794;-85
2023/02/11 00:52:24;;;;;;;64.83;30.03;;;;;;;-5.07;55.14;102305.45;125611;1099;104162;-85
2023/02/11 00:54:55;;;;;;;59.53;27.87;;;;;;;-5.08;55.32;102307.11;125567;1099;104169;-85
2023/02/11 00:57:26;;;;;;;64.23;30.50;;;;;;;-5.07;55.40;102303.80;125551;1098;104220;-85
2023/02/11 00:59:57;;;;;;;63.83;28.87;;;;;;;-5.06;55.26;102307.30;125558;1099;102072;-85
2023/02/11 01:02:29;;;;;;;63.43;28.93;;;;;;;-5.07;55.28;102308.92;125705;1098;101927;-84
2023/02/11 01:05:00;;;;;;;67.50;30.13;;;;;;;-5.06;55.29;102297.97;125599;1099;104162;-86
2023/02/11 01:07:32;;;;;;;64.43;30.07;;;;;;;-5.05;55.29;102298.88;125574;1099;104287;-85
2023/02/11 01:10:03;;;;;;;59.93;27.97;;;;;;;-5.02;55.40;102293.23;125551;1099;104172;-85
2023/02/11 01:12:35;;;;;;;64.93;29.33;;;;;;;-5.00;54.78;102296.90;125748;1099;104179;-83
2023/02/11 01:15:09;;;;;;;61.00;28.37;;;;;;;-4.98;55.51;102288.70;125472;1099;101830;-85
2023/02/11 01:17:41;;;;;;;64.33;29.20;;;;;;;-4.95;55.47;102285.62;125674;1099;101948;-84
2023/02/11 01:20:16;;;;;;;57.57;28.47;;;;;;;-4.91;55.57;102287.81;125546;1098;101878;-85
2023/02/11 01:22:48;;;;;;;63.40;30.10;;;;;;;-4.88;55.52;102284.02;125648;1099;102138;-84
2023/02/11 01:25:20;;;;;;;61.87;29.70;;;;;;;-4.83;55.59;102283.66;125515;1098;104118;-82
2023/02/11 01:27:51;;;;;;;65.80;31.13;;;;;;;-4.77;55.54;102276.75;125577;1099;101955;-82
2023/02/11 01:30:23;;;;;;;69.60;30.93;;;;;;;-4.71;55.85;102286.10;125615;1099;104210;-85
2023/02/11 01:32:54;;;;;;;68.53;31.20;;;;;;;-4.63;55.56;102281.03;125571;1099;104233;-83
2023/02/11 01:35:26;;;;;;;64.37;30.23;;;;;;;-4.57;55.87;102277.58;125032;1099;104239;-85
2023/02/11 01:37:57;;;;;;;61.23;28.83;;;;;;;-4.51;55.37;102267.19;125616;1099;102090;-83
2023/02/11 01:40:29;;;;;;;61.00;28.00;;;;;;;-4.47;55.40;102274.53;125771;1099;101890;-84
2023/02/11 01:43:00;;;;;;;60.93;27.87;;;;;;;-4.45;55.93;102273.07;125680;1099;102076;-85
2023/02/11 01:45:58;;;;;;;64.00;29.83;;;;;;;-4.44;55.75;102266.29;124969;1099;104235;-85
2023/02/11 01:48:34;;;;;;;65.90;29.37;;;;;;;-4.44;55.50;102259.54;125602;1099;102118;-84
2023/02/11 01:51:10;;;;;;;63.97;29.83;;;;;;;-4.44;56.24;102251.85;125565;1099;102851;-85
2023/02/11 01:59:29;;;;;;;65.07;28.60;;;;;;;-4.51;56.16;102260.41;124937;1099;104252;-86
2023/02/11 02:02:05;;;;;;;64.97;31.37;;;;;;;-4.51;56.00;102256.94;125582;1099;104178;-85
2023/02/11 02:04:45;;;;;;;61.67;29.57;;;;;;;-4.55;55.69;102265.90;125552;1099;104153;-80
2023/02/11 02:07:29;;;;;;;68.90;33.10;;;;;;;-4.54;56.43;102265.15;125656;1099;101817;-83
2023/02/11 02:10:09;;;;;;;66.40;31.17;;;;;;;-4.53;55.90;102264.43;125018;1099;102361;-84
2023/02/11 02:12:40;;;;;;;66.10;31.00;;;;;;;-4.55;56.30;102262.39;125643;1099;107038;-85
2023/02/11 02:15:27;;;;;;;71.33;32.60;;;;;;;-4.55;55.97;102268.46;125635;1099;104184;-85
2023/02/11 02:18:16;;;;;;;73.03;33.57;;;;;;;-4.55;56.35;102265.90;125528;1099;104233;-85
2023/02/11 02:21:27;;;;;;;64.27;32.33;;;;;;;-4.56;56.33;102265.70;125597;1099;104223;-81
2023/02/11 02:24:24;;;;;;;71.03;31.30;;;;;;;-4.60;56.11;102258.36;125617;1099;104172;-82
2023/02/11 02:27:34;;;;;;;66.63;31.03;;;;;;;-4.62;56.20;102268.41;125589;1099;104351;-84
2023/02/11 02:30:45;;;;;;;62.77;29.90;;;;;;;-4.62;56.11;102262.38;125276;1099;102016;-84
2023/02/11 02:33:24;;;;;;;68.33;31.03;;;;;;;-4.64;56.24;102258.69;125584;1099;110133;-85
2023/02/11 02:36:06;;;;;;;76.50;32.03;;;;;;;-4.63;56.18;102263.09;125708;1099;102025;-85
2023/02/11 02:38:45;;;;;;;70.63;33.27;;;;;;;-4.65;56.22;102257.78;125611;1098;102048;-85
2023/02/11 02:41:19;;;;;;;76.30;34.70;;;;;;;-4.69;56.23;102260.68;125471;1099;102798;-82
2023/02/11 02:43:52;;;;;;;81.63;35.87;;;;;;;-4.73;56.43;102261.95;125694;1099;101830;-84
2023/02/11 02:46:26;;;;;;;63.03;31.00;;;;;;;-4.78;56.27;102257.91;125597;1098;102042;-83
2023/02/11 02:48:59;;;;;;;77.03;34.03;;;;;;;-4.83;55.84;102258.99;125563;1098;101867;-83
2023/02/11 02:52:09;;;;;;;66.17;31.47;;;;;;;-4.88;56.28;102257.47;125561;1099;104251;-85
2023/02/11 02:55:19;;;;;;;62.70;30.27;;;;;;;-4.93;56.42;102259.45;125545;1099;101991;-84
2023/02/11 02:58:10;;;;;;;67.93;32.20;;;;;;;-4.98;56.31;102269.87;125578;1098;101882;-85
2023/02/11 03:00:48;;;;;;;63.45;31.00;;;;;;;-5.02;56.16;102272.75;125335;1099;101863;-84
2023/02/11 03:03:38;;;;;;;70.73;33.83;;;;;;;-5.04;56.30;102270.00;125644;1099;104262;-81
2023/02/11 03:06:18;;;;;;;69.07;31.87;;;;;;;-5.02;56.12;102273.66;125654;1099;102236;-84
2023/02/11 03:08:55;;;;;;;66.67;30.33;;;;;;;-5.00;56.34;102271.30;125085;1099;102940;-81
2023/02/11 03:11:29;;;;;;;69.90;31.47;;;;;;;-5.02;56.42;102268.55;125766;1098;102095;-84
2023/02/11 03:14:04;;;;;;;66.60;31.10;;;;;;;-5.03;57.10;102261.61;125654;1098;102256;-84
2023/02/11 03:16:38;;;;;;;65.20;31.27;;;;;;;-5.06;56.57;102261.22;125684;1099;101843;-83
2023/02/11 03:19:21;;;;;;;65.50;30.97;;;;;;;-5.11;56.35;102263.20;125795;1099;102016;-84
2023/02/11 03:21:53;;;;;;;74.00;35.37;;;;;;;-5.12;56.35;102269.03;125653;1099;104166;-82
2023/02/11 03:24:30;;;;;;;71.50;33.80;;;;;;;-5.13;56.53;102268.84;124987;1099;104203;-84
2023/02/11 03:27:06;;;;;;;68.63;31.80;;;;;;;-5.11;56.46;102270.88;125602;1099;104179;-83
2023/02/11 03:29:43;;;;;;;72.50;34.10;;;;;;;-5.07;56.55;102265.41;125704;1098;102121;-83
2023/02/11 03:32:19;;;;;;;78.53;35.70;;;;;;;-5.01;56.95;102259.24;125681;1099;102330;-81
2023/02/11 03:34:55;;;;;;;80.30;37.37;;;;;;;-4.97;56.76;102257.27;125646;1098;107052;-82
2023/02/11 03:37:31;;;;;;;85.10;38.73;;;;;;;-4.89;56.76;102253.10;125666;1099;104105;-83
2023/02/11 03:40:06;;;;;;;82.00;38.53;;;;;;;-4.81;56.66;102247.28;125677;1099;102558;-83
2023/02/11 03:42:41;;;;;;;83.60;39.30;;;;;;;-4.73;56.80;102244.02;125687;1099;102036;-83
2023/02/11 03:45:17;;;;;;;84.13;39.87;;;;;;;-4.65;56.79;102242.41;125609;1099;101871;-84
2023/02/11 03:47:53;;;;;;;80.90;38.57;;;;;;;-4.56;56.88;102233.30;125602;1098;102282;-83
2023/02/11 03:50:26;;;;;;;83.03;35.57;;;;;;;-4.49;57.43;102239.19;125696;1099;104340;-84
2023/02/11 03:53:00;;;;;;;84.03;37.20;;;;;;;-4.47;56.96;102225.84;125683;1099;104165;-84
2023/02/11 03:55:33;;;;;;;82.62;37.88;;;;;;;-4.41;56.79;102230.78;125638;1099;104262;-80
2023/02/11 03:58:05;;;;;;;84.33;35.23;;;;;;;-4.39;57.02;102231.91;125702;1099;102012;-82
2023/02/11 04:00:39;;;;;;;76.70;35.50;;;;;;;-4.37;56.93;102241.60;125632;1098;102427;-84
2023/02/11 04:03:12;;;;;;;73.20;34.20;;;;;;;-4.42;56.92;102237.57;125548;1099;104228;-81
2023/02/11 04:05:44;;;;;;;69.77;32.43;;;;;;;-4.46;56.97;102235.34;125754;1098;103091;-83
2023/02/11 04:08:31;;;;;;;67.67;32.70;;;;;;;-4.52;56.91;102237.16;125652;1099;104179;-81
2023/02/11 04:11:02;;;;;;;70.73;33.27;;;;;;;-4.55;57.13;102239.33;125734;1099;101939;-83
2023/02/11 04:13:34;;;;;;;64.07;31.43;;;;;;;-4.60;56.96;102236.20;125754;1099;103011;-84
2023/02/11 04:16:05;;;;;;;69.63;30.63;;;;;;;-4.59;57.21;102232.02;125612;1099;104301;-82
2023/02/11 04:18:36;;;;;;;64.13;30.60;;;;;;;-4.60;57.11;102232.73;125710;1098;102326;-84
2023/02/11 04:21:08;;;;;;;63.47;30.67;;;;;;;-4.60;57.21;102238.77;125786;1099;104185;-84
2023/02/11 04:23:39;;;;;;;63.07;29.07;;;;;;;-4.60;57.05;102235.30;125860;1098;104175;-83
2023/02/11 04:26:10;;;;;;;64.20;31.10;;;;;;;-4.62;56.98;102226.52;125876;1099;104166;-82
2023/02/11 04:28:41;;;;;;;64.33;31.30;;;;;;;-4.63;57.24;102229.80;125676;1099;101845;-83
2023/02/11 04:31:13;;;;;;;67.67;30.60;;;;;;;-4.62;57.63;102231.64;125822;1099;104179;-84
2023/02/11 04:33:44;;;;;;;66.10;31.57;;;;;;;-4.65;57.34;102231.26;125939;1099;102580;-83
2023/02/11 04:36:15;;;;;;;68.13;32.37;;;;;;;-4.68;57.42;102215.52;125764;1099;101929;-82
2023/02/11 04:38:47;;;;;;;66.30;30.47;;;;;;;-4.71;57.62;102218.59;125959;1099;104223;-84
2023/02/11 04:41:18;;;;;;;67.33;30.67;;;;;;;-4.74;57.45;102216.56;125585;1099;104191;-83
2023/02/11 04:43:49;;;;;;;65.30;30.37;;;;;;;-4.72;57.52;102225.38;125902;1099;101830;-84
2023/02/11 04:46:20;;;;;;;64.73;29.63;;;;;;;-4.72;57.89;102225.38;125641;1099;104179;-84
2023/02/11 04:48:52;;;;;;;62.30;29.20;;;;;;;-4.72;57.56;102209.06;125678;1099;102180;-83
2023/02/11 04:51:23;;;;;;;61.90;27.87;;;;;;;-4.68;57.75;102211.30;125676;1099;102319;-82
2023/02/11 04:53:54;;;;;;;66.17;29.70;;;;;;;-4.62;57.50;102211.14;125676;1099;104165;-82
2023/02/11 04:56:25;;;;;;;60.23;28.20;;;;;;;-4.58;57.42;102206.59;125637;1099;110391;-84
2023/02/11 04:58:56;;;;;;;57.60;28.83;;;;;;;-4.56;57.75;102194.88;125636;1099;104197;-84
2023/02/11 05:01:28;;;;;;;61.07;28.53;;;;;;;-4.51;57.36;102195.44;125672;1098;104175;-82
2023/02/11 05:03:59;;;;;;;61.43;29.17;;;;;;;-4.47;57.54;102187.41;125562;1099;104194;-85
2023/02/11 05:06:30;;;;;;;56.53;27.63;;;;;;;-4.43;57.68;102187.03;125521;1099;102132;-81
2023/02/11 05:09:02;;;;;;;58.57;28.57;;;;;;;-4.40;57.39;102189.06;125672;1098;104316;-83
2023/02/11 05:11:33;;;;;;;57.70;27.30;;;;;;;-4.38;57.35;102197.84;125087;1099;102025;-82
2023/02/11 05:14:05;;;;;;;62.30;29.80;;;;;;;-4.38;57.76;102192.72;125914;1099;103029;-80
2023/02/11 05:16:36;;;;;;;56.90;27.67;;;;;;;-4.39;57.81;102190.91;125756;1098;104073;-81
2023/02/11 05:19:07;;;;;;;58.60;26.57;;;;;;;-4.38;57.73;102192.72;125577;1099;102182;-84
2023/02/11 05:21:38;;;;;;;63.65;28.40;;;;;;;-4.35;57.72;102187.97;125651;1099;104235;-83
2023/02/11 05:24:10;;;;;;;59.17;28.53;;;;;;;-4.32;58.01;102192.56;125613;1099;101842;-84
2023/02/11 05:26:41;;;;;;;55.30;27.33;;;;;;;-4.27;58.07;102192.41;125100;1099;104230;-83
2023/02/11 05:29:13;;;;;;;56.10;26.00;;;;;;;-4.20;57.95;102182.15;125624;1099;104246;-85
2023/02/11 05:31:44;;;;;;;55.53;25.83;;;;;;;-4.13;57.62;102183.80;125675;1099;102018;-86
2023/02/11 05:34:15;;;;;;;59.50;27.63;;;;;;;-4.08;58.06;102190.42;125648;1099;102019;-85
2023/02/11 05:36:46;;;;;;;58.20;27.10;;;;;;;-4.04;57.79;102181.44;125647;1098;101852;-83
2023/02/11 05:39:18;;;;;;;56.70;27.53;;;;;;;-4.01;58.34;102186.94;125704;1099;101936;-84
2023/02/11 05:41:49;;;;;;;58.80;27.70;;;;;;;-3.99;57.54;102175.20;125637;1099;101903;-82
2023/02/11 05:44:20;;;;;;;58.97;26.70;;;;;;;-3.95;57.96;102182.55;125592;1099;101865;-80
2023/02/11 05:46:51;;;;;;;60.23;27.17;;;;;;;-3.92;58.23;102182.92;125464;1099;103436;-85
2023/02/11 05:49:23;;;;;;;57.87;26.50;;;;;;;-3.87;57.65;102180.91;125606;1099;101772;-85
2023/02/11 05:51:54;;;;;;;55.43;26.37;;;;;;;-3.82;58.01;102185.87;125587;1099;104162;-83
2023/02/11 05:54:25;;;;;;;55.07;26.20;;;;;;;-3.77;58.28;102182.92;125651;1099;104370;-84
2023/02/11 05:56:56;;;;;;;57.23;26.60;;;;;;;-3.74;57.53;102179.09;125604;1099;104076;-84
2023/02/11 05:59:28;;;;;;;56.50;27.70;;;;;;;-3.70;58.21;102181.27;125570;1099;102218;-82
2023/02/11 06:01:59;;;;;;;58.53;27.53;;;;;;;-3.65;58.46;102182.72;125597;1099;104156;-83
2023/02/11 06:04:30;;;;;;;54.17;26.80;;;;;;;-3.58;58.32;102180.89;125508;1099;104252;-81
2023/02/11 06:07:02;;;;;;;60.35;28.15;;;;;;;-3.53;58.20;102177.24;125633;1099;102520;-84
2023/02/11 06:09:33;;;;;;;58.80;28.07;;;;;;;-3.42;57.83;102173.38;125599;1099;102268;-83
2023/02/11 06:12:05;;;;;;;57.73;26.50;;;;;;;-3.34;58.10;102178.66;125617;1099;104261;-84
2023/02/11 06:14:36;;;;;;;65.97;29.43;;;;;;;-3.26;58.16;102172.80;125563;1099;101836;-85
2023/02/11 06:17:07;;;;;;;61.90;28.23;;;;;;;-3.17;58.03;102172.04;125652;1098;102479;-83
2023/02/11 06:19:39;;;;;;;59.20;26.30;;;;;;;-3.06;58.85;102166.50;125509;1099;104183;-85
2023/02/11 06:22:10;;;;;;;60.87;27.80;;;;;;;-2.99;58.23;102161.34;125659;1099;102115;-85
2023/02/11 06:24:42;;;;;;;53.60;26.37;;;;;;;-2.96;58.47;102156.56;125557;1099;101795;-84
2023/02/11 06:27:14;;;;;;;56.67;26.23;;;;;;;-2.90;58.69;102154.70;125605;1099;101816;-85
2023/02/11 06:29:45;;;;;;;64.00;28.70;;;;;;;-2.85;58.27;102162.02;125648;1099;101977;-85
2023/02/11 06:32:17;;;;;;;65.67;28.57;;;;;;;-2.82;58.74;102159.80;125625;1099;104192;-81
2023/02/11 06:34:48;;;;;;;63.43;31.00;;;;;;;-2.77;59.01;102166.41;125718;1099;104158;-84
2023/02/11 06:37:20;;;;;;;59.37;28.23;;;;;;;-2.73;58.93;102166.00;125534;1099;102026;-85
2023/02/11 06:39:51;;;;;;;61.33;28.57;;;;;;;-2.65;58.71;102172.97;125670;1099;104313;-83
2023/02/11 06:42:22;;;;;;;65.23;27.13;;;;;;;-2.58;58.93;102160.05;125581;1099;101964;-85
2023/02/11 06:44:53;;;;;;;63.15;29.65;;;;;;;-2.50;58.03;102158.36;125673;1099;101833;-85
2023/02/11 06:47:25;;;;;;;63.77;30.27;;;;;;;-2.43;59.07;102162.54;125631;1098;101804;-85
2023/02/11 06:49:56;;;;;;;63.50;29.40;;;;;;;-2.36;57.90;102157.37;125650;1099;102023;-85
2023/02/11 06:52:27;;;;;;;59.73;27.30;;;;;;;-2.27;58.83;102163.56;125709;1099;104242;-84
2023/02/11 06:54:58;;;;;;;56.03;27.63;;;;;;;-2.19;57.99;102157.62;125652;1099;102372;-86
2023/02/11 06:57:30;;;;;;;54.33;26.40;;;;;;;-2.12;57.42;102154.10;125538;1099;102055;-84
2023/02/11 07:00:01;;;;;;;59.73;27.63;;;;;;;-2.06;58.73;102147.04;125545;1099;101861;-85
2023/02/11 07:02:32;;;;;;;58.53;27.33;;;;;;;-1.99;58.17;102146.09;125665;1098;104120;-82
2023/02/11 07:05:04;;;;;;;53.93;27.00;;;;;;;-1.92;57.80;102146.02;125533;1099;104306;-82
2023/02/11 07:07:36;;;;;;;61.07;28.60;;;;;;;-1.82;57.44;102141.17;125693;1099;104389;-85
2023/02/11 07:10:08;;;;;;;58.97;27.67;;;;;;;-1.72;57.78;102147.34;125866;1099;104073;-83
2023/02/11 07:12:40;;;;;;;61.93;28.40;;;;;;;-1.62;58.48;102137.33;125834;1099;104057;-82
2023/02/11 07:15:11;;;;;;;59.77;28.27;;;;;;;-1.54;58.64;102128.78;125669;1098;104317;-84
2023/02/11 07:17:43;;;;;;;59.00;28.67;;;;;;;-1.47;58.10;102126.11;125692;1099;102243;-85
2023/02/11 07:20:14;;;;;;;59.37;28.47;;;;;;;-1.41;58.39;102124.98;125653;1099;104114;-85
2023/02/11 07:22:45;;;;;;;62.40;29.70;;;;;;;-1.35;57.97;102129.13;125537;1099;101849;-84
2023/02/11 07:25:17;;;;;;;60.30;28.43;;;;;;;-1.27;58.71;102127.39;125602;1099;102342;-81
2023/02/11 07:27:48;;;;;;;59.17;27.60;;;;;;;-1.19;58.56;102123.08;125678;1099;104117;-85
2023/02/11 07:30:20;;;;;;;64.93;29.83;;;;;;;-1.11;58.51;102129.97;125591;1099;104178;-86
2023/02/11 07:32:51;;;;;;;60.73;28.10;;;;;;;-1.05;57.84;102129.73;125515;1099;102108;-85
2023/02/11 07:35:22;;;;;;;60.83;28.53;;;;;;;-1.00;57.59;102125.97;125475;1099;104256;-85
2023/02/11 07:37:54;;;;;;;56.45;27.55;;;;;;;-0.95;58.13;102124.80;125551;1099;102613;-86
2023/02/11 07:40:25;;;;;;;59.33;27.80;;;;;;;-0.87;58.37;102121.41;125465;1099;104300;-85
2023/02/11 07:42:56;;;;;;;61.50;28.03;;;;;;;-0.78;57.85;102124.97;125600;1099;104216;-83
2023/02/11 07:45:27;;;;;;;58.03;29.23;;;;;;;-0.69;57.62;102125.02;125581;1099;104836;-82
2023/02/11 07:47:59;;;;;;;63.23;29.87;;;;;;;-0.60;58.33;102119.94;125581;1099;101871;-83
2023/02/11 07:50:30;;;;;;;59.80;29.03;;;;;;;-0.52;57.98;102126.81;125622;1099;102843;-82
2023/02/11 07:53:01;;;;;;;61.60;28.40;;;;;;;-0.44;58.08;102123.37;125572;1099;104182;-85
2023/02/11 07:55:34;;;;;;;64.43;28.20;;;;;;;-0.35;57.79;102120.86;125624;1099;101861;-85
2023/02/11 07:58:06;;;;;;;55.90;26.97;;;;;;;-0.26;57.84;102126.98;125468;1099;104303;-86
2023/02/11 08:00:37;;;;;;;57.83;27.37;;;;;;;-0.19;58.17;102113.05;125440;1099;101856;-85
2023/02/11 08:03:08;;;;;;;57.83;27.87;;;;;;;-0.14;57.63;102111.89;125569;1099;104238;-85
2023/02/11 08:05:41;;;;;;;56.30;27.87;;;;;;;-0.14;57.98;102108.37;125497;1099;102449;-85
2023/02/11 08:08:12;;;;;;;61.10;28.60;;;;;;;-0.10;57.60;102105.38;125501;1099;104258;-85
2023/02/11 08:10:43;;;;;;;56.90;28.33;;;;;;;0.01;57.98;102106.48;125506;1099;102024;-86
2023/02/11 08:13:14;;;;;;;65.73;28.77;;;;;;;0.12;57.51;102098.17;125430;1099;104178;-83
2023/02/11 08:15:46;;;;;;;64.27;29.40;;;;;;;0.18;57.52;102093.64;125466;1098;104175;-84
2023/02/11 08:18:17;;;;;;;57.90;28.33;;;;;;;0.26;58.18;102091.85;124957;1099;101903;-86
2023/02/11 08:20:48;;;;;;;57.53;29.20;;;;;;;0.35;58.21;102085.95;125701;1098;104178;-86
2023/02/11 08:23:19;;;;;;;58.10;29.83;;;;;;;0.48;57.98;102084.61;125576;1099;104351;-86
2023/02/11 08:25:51;;;;;;;60.87;29.97;;;;;;;0.61;58.05;102072.19;125555;1099;101935;-86
2023/02/11 08:28:22;;;;;;;61.10;29.17;;;;;;;0.74;57.63;102066.58;125538;1099;104220;-86
2023/02/11 08:30:53;;;;;;;67.03;31.07;;;;;;;0.89;58.16;102059.45;125450;1099;109544;-86
2023/02/11 08:33:24;;;;;;;67.87;31.27;;;;;;;1.05;57.95;102056.70;125571;1099;104242;-86
2023/02/11 08:35:55;;;;;;;63.63;31.67;;;;;;;1.18;57.93;102053.64;125499;1099;102021;-84
2023/02/11 08:38:27;;;;;;;65.67;32.03;;;;;;;1.32;58.20;102050.72;125617;1099;104057;-85
2023/02/11 08:41:01;;;;;;;60.70;31.27;;;;;;;1.50;57.83;102045.54;125613;1099;104220;-85
2023/02/11 08:43:32;;;;;;;65.97;30.97;;;;;;;1.64;58.17;102032.25;125655;1099;102070;-86
2023/02/11 08:46:05;;;;;;;65.73;30.70;;;;;;;1.75;57.63;102021.23;125604;1099;101874;-85
2023/02/11 08:48:36;;;;;;;63.00;32.87;;;;;;;1.89;58.22;102021.65;125611;1099;102454;-86
2023/02/11 08:51:10;;;;;;;68.77;32.00;;;;;;;2.03;58.03;102020.37;125463;1098;101916;-86
2023/02/11 08:53:42;;;;;;;63.73;31.43;;;;;;;2.23;58.17;102023.14;125528;1099;102258;-86
2023/02/11 08:56:15;;;;;;;73.80;32.70;;;;;;;2.41;58.48;102016.16;125547;1099;102317;-86
2023/02/11 08:58:46;;;;;;;67.00;29.63;;;;;;;2.61;57.86;102011.91;125648;1099;104179;-86
2023/02/11 09:01:20;;;;;;;55.63;25.33;;;;;;;2.78;57.90;102001.39;125693;1099;101957;-87
2023/02/11 09:03:52;;;;;;;55.78;24.87;;;;;;;2.97;57.81;101997.88;125649;1099;102988;-83
2023/02/11 09:06:25;;;;;;;47.73;23.13;;;;;;;3.12;58.44;101987.98;125581;1098;104277;-85
2023/02/11 09:08:57;;;;;;;47.40;21.67;;;;;;;3.19;58.61;101991.23;125611;1099;101977;-87
2023/02/11 09:11:32;;;;;;;45.77;22.63;;;;;;;3.27;58.44;101983.23;125576;1099;104194;-86
2023/02/11 09:14:02;;;;;;;;;;;;;;;3.35;57.00;101975.37;125758;1099;104216;-85
2023/02/11 09:16:36;;;;;;;39.27;18.93;;;;;;;3.42;58.12;101969.02;125597;1099;104159;-82
2023/02/11 09:19:07;;;;;;;44.40;17.80;;;;;;;3.49;57.95;101970.45;125509;1099;104175;-85
2023/02/11 09:21:38;;;;;;;30.10;14.10;;;;;;;3.63;58.05;101964.81;124985;1099;104178;-83
2023/02/11 09:24:10;;;;;;;27.63;12.43;;;;;;;3.77;57.94;101964.31;125512;1098;101857;-83
2023/02/11 09:26:43;;;;;;;30.50;12.67;;;;;;;3.91;57.96;101957.72;125579;1098;104248;-85
2023/02/11 09:29:14;;;;;;;30.53;13.10;;;;;;;4.04;57.79;101949.27;125509;1099;104409;-83
2023/02/11 09:31:45;;;;;;;28.27;12.07;;;;;;;4.18;57.97;101949.55;124991;1102;104169;-85
2023/02/11 09:34:17;;;;;;;27.63;12.93;;;;;;;4.27;57.50;101952.89;125458;1098;104354;-83
2023/02/11 09:36:48;;;;;;;25.57;11.90;;;;;;;4.35;57.24;101946.67;125564;1099;102208;-84
2023/02/11 09:39:20;;;;;;;29.10;12.77;;;;;;;4.45;57.92;101933.64;125514;1099;102092;-83
2023/02/11 09:42:10;;;;;;;29.17;13.67;;;;;;;4.54;56.94;101941.31;125573;1099;102240;-85
2023/02/11 09:44:44;;;;;;;28.87;13.67;;;;;;;4.55;57.27;101935.34;125604;1099;101829;-85
2023/02/11 09:47:25;;;;;;;34.10;13.95;;;;;;;4.59;57.12;101926.98;125620;1098;104175;-83
2023/02/11 09:50:02;;;;;;;26.87;12.33;;;;;;;4.65;56.82;101916.20;125573;1098;103292;-86
2023/02/11 09:52:41;;;;;;;25.60;11.97;;;;;;;4.68;56.74;101917.34;125650;1099;118751;-87
2023/02/11 09:55:20;;;;;;;25.63;11.43;;;;;;;4.70;56.73;101900.98;125481;1098;104363;-85
2023/02/11 09:57:52;;;;;;;26.63;11.50;;;;;;;4.69;56.90;101897.48;125474;1099;104173;-88
2023/02/11 10:00:28;;;;;;;29.27;11.80;;;;;;;4.75;56.80;101897.05;125483;1099;104214;-81
2023/02/11 10:03:49;;;;;;;27.63;11.20;;;;;;;4.82;56.33;101891.58;125461;1099;104073;-82
2023/02/11 10:06:43;;;;;;;26.60;10.97;;;;;;;4.84;56.47;101890.89;125543;1099;102709;-86
2023/02/11 10:09:28;;;;;;;24.23;10.90;;;;;;;4.95;56.66;101875.25;125590;1099;102041;-85
2023/02/11 10:12:11;;;;;;;25.07;9.13;;;;;;;5.00;56.31;101873.92;125505;1099;101939;-82
2023/02/11 10:15:11;;;;;;;28.57;11.73;;;;;;;5.00;56.09;101867.05;125538;1099;104172;-85
2023/02/11 10:17:56;;;;;;;25.57;11.43;;;;;;;4.98;56.20;101863.39;125453;1099;104188;-85
2023/02/11 10:20:34;;;;;;;27.50;11.13;;;;;;;5.04;55.91;101861.28;125522;1099;102410;-88
2023/02/11 10:23:15;;;;;;;26.10;10.47;;;;;;;5.10;55.21;101862.58;125577;1099;104176;-85
2023/02/11 10:25:51;;;;;;;25.63;9.80;;;;;;;5.17;55.85;101847.58;125503;1099;101840;-83
2023/02/11 10:28:29;;;;;;;22.47;9.53;;;;;;;5.26;56.24;101844.77;125572;1099;104172;-88
2023/02/11 10:31:03;;;;;;;23.67;9.80;;;;;;;5.34;56.18;101830.64;125734;1099;104185;-85
2023/02/11 10:33:41;;;;;;;26.10;10.00;;;;;;;5.50;56.20;101826.63;125594;1099;101954;-85
2023/02/11 10:36:14;;;;;;;22.80;8.57;;;;;;;5.59;55.41;101827.34;125654;1099;102354;-86
2023/02/11 10:38:46;;;;;;;20.70;8.20;;;;;;;5.69;55.91;101811.65;125653;1099;104158;-82
2023/02/11 10:41:21;;;;;;;23.13;8.00;;;;;;;5.84;54.97;101813.59;125435;1098;104168;-84
2023/02/11 10:43:52;;;;;;;21.40;8.20;;;;;;;5.92;54.60;101802.05;125542;1099;101993;-85
2023/02/11 10:46:29;;;;;;;21.40;8.57;;;;;;;5.99;55.23;101804.37;125534;1098;104290;-85
2023/02/11 10:49:02;;;;;;;25.10;9.00;;;;;;;6.14;55.12;101798.48;125374;1099;102064;-86
2023/02/11 10:51:34;;;;;;;28.20;10.00;;;;;;;6.19;55.46;101799.75;125608;1099;104092;-86
2023/02/11 10:54:20;;;;;;;21.73;8.70;;;;;;;6.23;54.61;101794.88;125620;1099;108891;-83
2023/02/11 10:56:58;;;;;;;19.63;8.10;;;;;;;6.22;54.51;101785.23;125598;1099;102102;-84
2023/02/11 10:59:36;;;;;;;24.80;8.77;;;;;;;6.17;54.36;101786.61;125552;1099;104475;-84
2023/02/11 11:02:23;;;;;;;19.67;8.10;;;;;;;6.10;54.42;101785.22;125537;1099;104175;-85
2023/02/11 11:04:59;;;;;;;21.40;7.63;;;;;;;6.03;53.73;101784.64;125620;1099;101932;-83
2023/02/11 11:07:31;;;;;;;18.30;7.70;;;;;;;5.93;54.52;101780.42;125551;1099;102019;-81
2023/02/11 11:10:06;;;;;;;20.63;8.17;;;;;;;5.88;54.03;101771.37;125556;1099;102113;-83
2023/02/11 11:12:50;;;;;;;19.80;7.75;;;;;;;5.85;54.27;101778.95;125629;1099;102382;-81
2023/02/11 11:15:24;;;;;;;24.00;8.60;;;;;;;5.79;54.16;101763.75;125516;1099;104176;-83
2023/02/11 11:18:14;;;;;;;20.97;8.08;;;;;;;5.73;53.92;101769.43;125499;1099;104274;-84
2023/02/11 11:20:58;;;;;;;19.60;8.33;;;;;;;5.72;54.19;101766.71;125544;1099;104181;-81
2023/02/11 11:23:30;;;;;;;20.65;8.28;;;;;;;5.70;53.75;101761.39;125532;1099;104207;-82
2023/02/11 11:26:05;;;;;;;22.67;8.07;;;;;;;5.68;54.12;101755.13;125677;1099;102172;-83
2023/02/11 11:28:42;;;;;;;24.27;8.43;;;;;;;5.62;53.76;101752.06;125579;1099;102704;-82
2023/02/11 11:31:20;;;;;;;19.80;8.47;;;;;;;5.56;53.63;101749.00;125632;1098;103110;-83
2023/02/11 11:33:54;;;;;;;22.23;8.33;;;;;;;5.50;53.40;101738.11;125568;1099;103267;-83
2023/02/11 11:36:34;;;;;;;24.87;8.98;;;;;;;5.44;52.91;101728.16;125532;1099;104254;-83